Time;durP1;ratioP1;P1;durP2;ratioP2;P2;SDS_P1;SDS_P2;PMS_P1;PMS_P2;Temp;Humidity;BMP_temperature;BMP_pressure;BME280_temperature;BME280_humidity;BME280_pressure;Samples;Min_cycle;Max_cycle;Signal;HPM_P1;HPM_P2
2022/05/25 00:00:32;;;;;;;;;;;13.90;99.90;;;11.51;100.00;100199.16;6151821;23;19927;-83
2022/05/25 00:02:59;;;;;;;;;;;13.90;99.90;;;11.55;100.00;100194.16;6151746;23;20315;-83
2022/05/25 00:05:26;;;;;;;;;;;14.00;99.90;;;11.58;100.00;100196.50;6153228;23;20011;-83
2022/05/25 00:07:54;;;;;;;;;;;14.00;99.90;;;11.59;100.00;100190.00;6152622;23;20007;-83
2022/05/25 00:10:21;;;;;;;;;;;14.00;99.90;;;11.59;100.00;100200.91;6153952;23;20537;-83
2022/05/25 00:12:48;;;;;;;;;;;14.00;99.90;;;11.59;100.00;100195.44;6153238;23;19952;-84
2022/05/25 00:15:16;;;;;;;;;;;14.00;99.90;;;11.52;100.00;100195.41;6153238;23;20332;-83
2022/05/25 00:17:43;;;;;;;;;;;14.00;99.90;;;11.52;100.00;100200.03;6152541;23;19963;-83
2022/05/25 00:20:10;;;;;;;;;;;14.00;99.90;;;11.50;100.00;100208.41;6127214;23;19974;-83
2022/05/25 00:22:44;;;;;;;;;;;14.00;99.90;;;11.44;100.00;100213.78;6153267;23;19916;-82
2022/05/25 00:25:13;;;;;;;;;;;14.00;99.90;;;11.39;100.00;100210.84;6153182;23;19963;-82
2022/05/25 00:27:40;;;;;;;;;;;13.90;99.90;;;11.35;100.00;100210.38;6152510;23;19916;-82
2022/05/25 00:30:09;;;;;;;;;;;13.90;99.90;;;11.33;100.00;100216.03;6153424;23;19927;-82
2022/05/25 00:32:37;;;;;;;;;;;13.90;99.90;;;11.33;100.00;100210.56;6153167;23;20003;-81
2022/05/25 00:35:05;;;;;;;;;;;13.90;99.90;;;11.33;100.00;100213.31;6152874;23;19920;-81
2022/05/25 00:37:34;;;;;;;;;;;13.80;99.90;;;11.35;100.00;100216.66;6153112;23;19921;-81
2022/05/25 00:40:01;;;;;;;;;;;13.90;99.90;;;11.40;100.00;100209.78;6152881;23;19920;-81
2022/05/25 00:42:28;;;;;;;;;;;13.90;99.90;;;11.44;100.00;100214.66;6153403;23;20558;-81
2022/05/25 00:44:55;;;;;;;;;;;13.90;99.90;;;11.44;100.00;100217.38;6152957;23;19916;-81
2022/05/25 00:47:24;;;;;;;;;;;13.90;99.90;;;11.40;100.00;100212.50;6153132;23;19951;-81
2022/05/25 00:49:53;;;;;;;;;;;13.90;99.90;;;11.32;100.00;100217.06;6152128;23;20332;-81
2022/05/25 00:52:20;;;;;;;;;;;13.90;99.90;;;11.24;100.00;100214.47;6152905;23;20328;-81
2022/05/25 00:54:49;;;;;;;;;;;13.90;99.90;;;11.25;100.00;100216.19;6152973;23;19920;-81
2022/05/25 00:57:19;;;;;;;;;;;13.80;99.90;;;11.22;100.00;100221.16;6152968;23;19955;-81
2022/05/25 00:59:56;;;;;;;;;;;13.80;99.90;;;11.14;100.00;100220.25;6126005;23;20346;-81
2022/05/25 01:02:24;;;;;;;;;;;13.70;99.90;;;11.15;100.00;100226.53;6152884;23;20035;-82
2022/05/25 01:04:52;;;;;;;;;;;13.70;99.90;;;11.10;100.00;100224.41;6152957;23;19940;-81
2022/05/25 01:07:32;;;;;;;;;;;13.70;99.90;;;11.06;100.00;100222.25;6152875;23;19948;-82
2022/05/25 01:10:10;;;;;;;;;;;13.70;99.90;;;11.06;100.00;100228.56;6152783;23;19958;-83
2022/05/25 01:12:50;;;;;;;;;;;13.70;99.90;;;11.02;100.00;100221.81;6152879;23;19943;-84
2022/05/25 01:15:22;;;;;;;;;;;13.70;99.90;;;11.00;100.00;100228.50;6126407;23;20028;-83
2022/05/25 01:18:00;;;;;;;;;;;13.60;99.90;;;11.04;100.00;100227.06;6151959;23;19998;-83
2022/05/25 01:20:34;;;;;;;;;;;13.70;99.90;;;10.94;100.00;100236.41;6152960;23;19927;-83
2022/05/25 01:23:41;;;;;;;;;;;13.60;99.90;;;10.94;100.00;100230.94;6152953;23;20003;-83
2022/05/25 01:26:32;;;;;;;;;;;13.60;99.90;;;10.90;100.00;100234.28;6152704;23;19921;-83
2022/05/25 01:29:19;;;;;;;;;;;13.50;99.90;;;10.89;100.00;100238.88;6151997;23;19924;-84
2022/05/25 01:31:54;;;;;;;;;;;13.50;99.90;;;10.85;100.00;100236.72;6152602;23;19917;-83
2022/05/25 01:34:26;;;;;;;;;;;13.50;99.90;;;10.81;100.00;100240.88;6152668;23;19955;-84
2022/05/25 01:37:04;;;;;;;;;;;13.50;99.90;;;10.73;100.00;100239.09;6152637;23;19920;-84
2022/05/25 01:39:33;;;;;;;;;;;13.40;99.90;;;10.77;100.00;100245.84;6151838;23;19924;-83
2022/05/25 01:42:04;;;;;;;;;;;13.40;99.90;;;10.73;100.00;100241.84;6152565;23;19927;-83
2022/05/25 01:44:37;;;;;;;;;;;13.40;99.90;;;10.72;100.00;100254.59;6152660;23;20264;-83
2022/05/25 01:47:09;;;;;;;;;;;13.40;99.90;;;10.71;100.00;100246.63;6126510;23;19924;-83
2022/05/25 01:49:52;;;;;;;;;;;13.30;99.90;;;10.65;100.00;100255.56;6151684;23;19920;-83
2022/05/25 01:52:21;;;;;;;;;;;13.30;99.90;;;10.60;100.00;100244.41;6152475;23;19927;-83
2022/05/25 01:54:51;;;;;;;;;;;13.30;99.90;;;10.64;100.00;100251.16;6152472;23;19956;-84
2022/05/25 01:57:19;;;;;;;;;;;13.30;99.90;;;10.59;100.00;100253.63;6152468;23;19916;-83
2022/05/25 01:59:46;;;;;;;;;;;13.20;99.90;;;10.63;100.00;100261.19;6151114;23;20012;-83
2022/05/25 02:05:04;;;;;;;;;;;13.30;99.90;;;10.62;100.00;100247.78;6152182;23;19928;-83
2022/05/25 02:07:39;;;;;;;;;;;13.30;99.90;;;10.63;100.00;100255.75;6152089;23;19921;-83
2022/05/25 02:10:17;;;;;;;;;;;13.20;99.90;;;10.60;100.00;100249.84;6152255;23;20400;-83
2022/05/25 02:12:58;;;;;;;;;;;13.20;99.90;;;10.56;100.00;100249.38;6152447;23;19930;-84
2022/05/25 02:15:32;;;;;;;;;;;13.20;99.90;;;10.60;100.00;100250.69;6152187;23;19920;-83
2022/05/25 02:18:06;;;;;;;;;;;13.20;99.90;;;10.61;100.00;100254.28;6151444;23;19959;-83
2022/05/25 02:20:39;;;;;;;;;;;13.20;99.90;;;10.51;100.00;100241.81;6126347;23;19948;-83
2022/05/25 02:23:11;;;;;;;;;;;13.20;99.90;;;10.57;100.00;100257.34;6152495;23;19920;-83
2022/05/25 02:25:43;;;;;;;;;;;13.20;99.90;;;10.56;100.00;100261.09;6152210;23;20470;-83
2022/05/25 02:28:14;;;;;;;;;;;13.20;99.90;;;10.51;100.00;100262.72;6151034;23;19952;-84
2022/05/25 02:30:46;;;;;;;;;;;13.20;99.90;;;10.49;100.00;100259.34;6152464;23;19948;-83
2022/05/25 02:33:20;;;;;;;;;;;13.20;99.90;;;10.53;100.00;100264.22;6152118;23;19991;-83
2022/05/25 02:35:48;;;;;;;;;;;13.10;99.90;;;10.53;100.00;100266.94;6125644;23;20275;-84
2022/05/25 02:38:15;;;;;;;;;;;13.10;99.90;;;10.49;100.00;100264.78;6151077;23;20340;-84
2022/05/25 02:40:42;;;;;;;;;;;13.10;99.90;;;10.47;100.00;100261.41;6152248;23;19948;-83
2022/05/25 02:43:10;;;;;;;;;;;13.10;99.90;;;10.47;100.00;100273.16;6152036;23;19920;-84
2022/05/25 02:45:38;;;;;;;;;;;13.10;99.90;;;10.46;100.00;100265.19;6152038;23;20007;-83
2022/05/25 02:48:06;;;;;;;;;;;13.20;99.90;;;10.47;100.00;100275.00;6124524;23;20417;-83
2022/05/25 02:50:35;;;;;;;;;;;13.10;99.90;;;10.45;100.00;100275.22;6152113;23;19999;-84
2022/05/25 02:53:04;;;;;;;;;;;13.10;99.90;;;10.45;100.00;100271.63;6151856;23;20339;-83
2022/05/25 02:55:32;;;;;;;;;;;13.10;99.90;;;10.45;100.00;100275.22;6151666;23;19933;-83
2022/05/25 02:57:59;;;;;;;;;;;13.10;99.90;;;10.42;100.00;100267.44;6150837;23;19987;-84
2022/05/25 03:00:26;;;;;;;;;;;13.10;99.90;;;10.47;100.00;100275.88;6152078;23;19920;-84
2022/05/25 03:02:56;;;;;;;;;;;13.10;99.90;;;10.49;100.00;100289.25;6152158;23;19916;-83
2022/05/25 03:05:23;;;;;;;;;;;13.10;99.90;;;10.50;100.00;100289.06;6151850;23;19925;-83
2022/05/25 03:07:52;;;;;;;;;;;13.10;99.90;;;10.49;100.00;100281.97;6151023;23;19926;-83
2022/05/25 03:10:19;;;;;;;;;;;13.10;99.90;;;10.45;100.00;100280.66;6151858;23;20267;-84
2022/05/25 03:12:47;;;;;;;;;;;13.10;99.90;;;10.53;100.00;100294.16;6125514;23;20527;-84
2022/05/25 03:15:14;;;;;;;;;;;13.10;99.90;;;10.47;100.00;100289.47;6151477;23;19959;-84
2022/05/25 03:17:41;;;;;;;;;;;13.10;99.90;;;10.48;100.00;100291.16;6150885;23;19924;-84
2022/05/25 03:20:11;;;;;;;;;;;13.10;99.90;;;10.47;100.00;100300.34;6151871;23;19935;-84
2022/05/25 03:22:39;;;;;;;;;;;13.00;99.90;;;10.47;100.00;100294.91;6125466;23;19920;-83
2022/05/25 03:25:09;;;;;;;;;;;13.00;99.90;;;10.44;100.00;100298.00;6151685;23;19927;-84
2022/05/25 03:27:36;;;;;;;;;;;13.00;99.90;;;10.43;100.00;100299.03;6151213;23;19940;-84
2022/05/25 03:30:04;;;;;;;;;;;13.00;99.90;;;10.41;100.00;100301.09;6151578;23;19971;-84
2022/05/25 03:32:31;;;;;;;;;;;13.00;99.90;;;10.42;100.00;100301.97;6151651;23;19924;-84
2022/05/25 03:34:59;;;;;;;;;;;13.00;99.90;;;10.43;100.00;100307.19;6151398;23;19967;-84
2022/05/25 03:37:27;;;;;;;;;;;13.00;99.90;;;10.42;100.00;100300.06;6151801;23;20407;-84
2022/05/25 03:39:54;;;;;;;;;;;13.00;99.90;;;10.46;100.00;100308.69;6152333;23;19921;-84
2022/05/25 03:42:23;;;;;;;;;;;13.00;99.90;;;10.45;100.00;100307.00;6154020;23;20324;-83
2022/05/25 03:44:50;;;;;;;;;;;13.00;99.90;;;10.56;100.00;100312.81;6127326;23;20371;-84
2022/05/25 03:47:18;;;;;;;;;;;13.00;99.90;;;10.63;100.00;100306.63;6153532;23;19920;-84
2022/05/25 03:49:46;;;;;;;;;;;13.00;99.90;;;10.65;100.00;100315.44;6152819;23;20007;-83
2022/05/25 03:52:13;;;;;;;;;;;13.00;99.90;;;10.68;100.00;100321.34;6153802;23;20483;-84
2022/05/25 03:54:40;;;;;;;;;;;13.00;99.90;;;10.68;100.00;100321.34;6127338;23;19920;-84
2022/05/25 03:57:08;;;;;;;;;;;13.00;99.90;;;10.72;100.00;100317.22;6153656;23;20314;-86
2022/05/25 03:59:36;;;;;;;;;;;13.00;99.90;;;10.85;100.00;100329.28;6152690;23;20382;-84
2022/05/25 04:02:03;;;;;;;;;;;13.10;99.90;;;10.85;100.00;100321.97;6151792;23;19917;-88
2022/05/25 04:04:30;;;;;;;;;;;13.10;99.90;;;10.94;100.00;100323.53;6153473;23;19928;-87
2022/05/25 04:06:57;;;;;;;;;;;13.10;99.90;;;11.02;100.00;100336.19;6153707;23;19916;-87
2022/05/25 04:09:24;;;;;;;;;;;13.20;99.90;;;11.05;100.00;100329.53;6152898;23;20366;-87
2022/05/25 04:11:52;;;;;;;;;;;13.30;99.90;;;11.03;100.00;100332.44;6153545;23;19920;-87
2022/05/25 04:14:19;;;;;;;;;;;13.20;99.90;;;11.07;100.00;100335.63;6153338;23;19920;-89
2022/05/25 04:16:47;;;;;;;;;;;13.20;99.90;;;11.05;100.00;100335.81;6153695;23;20019;-85
2022/05/25 04:19:15;;;;;;;;;;;13.20;99.90;;;11.09;100.00;100319.94;6152822;23;19916;-86
2022/05/25 04:21:42;;;;;;;;;;;13.30;99.90;;;11.21;100.00;100340.16;6153751;23;19920;-86
2022/05/25 04:24:12;;;;;;;;;;;13.30;99.90;;;11.27;100.00;100341.25;6153480;23;19928;-87
2022/05/25 04:26:39;;;;;;;;;;;13.30;99.90;;;11.28;100.00;100342.97;6126898;23;20307;-85
2022/05/25 04:29:07;;;;;;;;;;;13.30;99.90;;;11.23;100.00;100339.97;6152277;23;19920;-87
2022/05/25 04:31:34;;;;;;;;;;;13.30;99.90;;;11.27;100.00;100338.53;6151771;23;19921;-88
2022/05/25 04:34:02;;;;;;;;;;;13.30;99.90;;;11.29;100.00;100333.75;6152423;23;19959;-87
2022/05/25 04:36:29;;;;;;;;;;;13.30;99.90;;;11.43;100.00;100342.91;6153241;23;19921;-85
2022/05/25 04:38:56;;;;;;;;;;;13.40;99.90;;;11.48;100.00;100352.19;6152274;23;19920;-84
2022/05/25 04:41:23;;;;;;;;;;;13.40;99.90;;;11.64;100.00;100348.34;6127253;23;19938;-81
2022/05/25 04:43:50;;;;;;;;;;;13.50;99.90;;;11.83;100.00;100346.84;6152552;23;20340;-81
2022/05/25 04:46:17;;;;;;;;;;;13.70;99.90;;;11.91;100.00;100356.78;6153115;23;20008;-81
2022/05/25 04:48:45;;;;;;;;;;;13.90;99.90;;;12.01;100.00;100354.56;6147089;23;20008;-77
2022/05/25 04:51:14;;;;;;;;;;;14.00;99.90;;;12.16;100.00;100354.47;6153128;23;19921;-77
2022/05/25 04:53:42;;;;;;;;;;;14.10;99.90;;;12.22;100.00;100355.53;6152661;23;19920;-77
2022/05/25 04:58:54;;;;;;;;;;;14.30;99.90;;;12.42;100.00;100367.44;6151041;23;20344;-77
2022/05/25 05:01:22;;;;;;;;;;;14.40;99.90;;;12.57;100.00;100369.22;6152036;23;19924;-77
2022/05/25 05:03:49;;;;;;;;;;;14.50;99.90;;;12.57;100.00;100378.25;6151857;23;19971;-77
2022/05/25 05:06:18;;;;;;;;;;;14.50;99.90;;;12.64;100.00;100372.81;6150176;23;19916;-77
2022/05/25 05:08:45;;;;;;;;;;;14.50;99.90;;;12.69;100.00;100375.78;6151031;23;20572;-77
2022/05/25 05:11:16;;;;;;;;;;;14.50;99.90;;;12.83;100.00;100383.00;6150250;23;20355;-77
2022/05/25 05:13:43;;;;;;;;;;;14.60;99.90;;;13.09;100.00;100381.44;6150331;23;20003;-77
2022/05/25 05:16:13;;;;;;;;;;;14.60;99.90;;;13.16;100.00;100376.00;6151245;23;20258;-93
2022/05/25 05:18:41;;;;;;;;;;;14.70;99.90;;;13.12;100.00;100375.56;6149726;23;19921;-91
2022/05/25 05:21:22;;;;;;;;;;;14.70;99.90;;;13.19;100.00;100373.66;6149853;23;19971;-91
2022/05/25 05:23:49;;;;;;;;;;;14.80;99.90;;;13.16;100.00;100374.09;6125550;23;20007;-90
2022/05/25 05:26:16;;;;;;;;;;;14.80;99.90;;;13.10;100.00;100380.41;6152070;23;20003;-92
2022/05/25 05:28:45;;;;;;;;;;;14.80;99.90;;;13.08;100.00;100383.31;6125992;23;20003;-93
2022/05/25 05:31:15;;;;;;;;;;;14.80;99.90;;;13.04;100.00;100375.72;6152238;23;19995;-91
2022/05/25 05:33:42;;;;;;;;;;;14.90;99.90;;;12.90;100.00;100372.09;6125378;23;19920;-92
2022/05/25 05:36:13;;;;;;;;;;;14.80;99.90;;;12.90;100.00;100372.94;6125823;23;20367;-92
2022/05/25 05:38:47;;;;;;;;;;;14.80;99.90;;;13.00;100.00;100374.44;6151620;23;19920;-91
2022/05/25 05:41:15;;;;;;;;;;;14.90;99.90;;;12.97;100.00;100367.53;6126296;23;19920;-92
2022/05/25 05:43:42;;;;;;;;;;;14.90;99.90;;;13.11;100.00;100379.34;6126633;23;20651;-93
2022/05/25 05:46:10;;;;;;;;;;;15.10;99.90;;;13.18;100.00;100385.66;6126135;23;19939;-90
2022/05/25 05:48:38;;;;;;;;;;;15.30;99.90;;;13.20;100.00;100380.84;6125219;23;19917;-91
2022/05/25 05:51:06;;;;;;;;;;;15.50;99.90;;;13.40;100.00;100386.41;6126042;23;19967;-92
2022/05/25 05:53:34;;;;;;;;;;;15.90;99.90;;;13.55;100.00;100382.63;6126243;23;20371;-91
2022/05/25 05:56:03;;;;;;;;;;;16.30;99.90;;;13.58;100.00;100382.22;6149373;23;19920;-89
2022/05/25 05:58:30;;;;;;;;;;;16.60;99.90;;;13.81;100.00;100385.41;6151075;23;19920;-90
2022/05/25 06:00:57;;;;;;;;;;;17.00;99.90;;;13.96;100.00;100390.69;6152186;23;19980;-87
2022/05/25 06:03:24;;;;;;;;;;;17.40;99.90;;;14.08;100.00;100390.88;6152153;23;20011;-87
2022/05/25 06:05:51;;;;;;;;;;;17.70;99.90;;;16.69;89.85;100385.69;6152501;23;20299;-86
2022/05/25 06:08:21;;;;;;;;;;;18.10;99.50;;;19.46;76.67;100381.63;6125339;23;19960;-86
2022/05/25 06:10:48;;;;;;;;;;;18.60;98.30;;;22.86;62.48;100373.59;6152232;23;19951;-86
2022/05/25 06:13:16;;;;;;;;;;;19.10;97.20;;;26.06;50.39;100362.59;6151815;23;20027;-87
2022/05/25 06:21:28;;;;;;;;;;;21.10;92.00;;;29.81;38.73;100379.06;6032927;23;19993;-87
2022/05/25 06:23:57;;;;;;;;;;;21.50;88.80;;;31.87;34.11;100374.16;6097411;23;19920;-87
2022/05/25 06:26:27;;;;;;;;;;;22.10;86.50;;;33.18;31.30;100376.63;6151995;23;19920;-85
2022/05/25 06:28:55;;;;;;;;;;;22.60;85.30;;;33.59;29.39;100391.97;6151121;23;19920;-86
2022/05/25 06:31:22;;;;;;;;;;;23.00;82.50;;;33.60;28.02;100393.63;6151655;23;19916;-85
2022/05/25 06:33:50;;;;;;;;;;;23.30;79.70;;;33.30;28.30;100400.13;6152237;23;20340;-85
2022/05/25 06:36:19;;;;;;;;;;;23.30;79.50;;;33.91;27.89;100398.88;6152056;23;20007;-86
2022/05/25 06:38:47;;;;;;;;;;;23.50;77.50;;;34.19;26.81;100401.13;6151253;23;19925;-85
2022/05/25 06:41:14;;;;;;;;;;;23.50;78.10;;;31.32;30.02;100396.09;6152280;23;19955;-86
2022/05/25 06:43:42;;;;;;;;;;;23.50;78.20;;;25.64;39.70;100419.75;6151678;23;19923;-86
2022/05/25 06:46:21;;;;;;;;;;;23.20;79.00;;;22.52;48.12;100423.06;6151952;23;19920;-87
2022/05/25 06:48:49;;;;;;;;;;;23.20;79.90;;;21.28;52.42;100418.19;6151115;23;19924;-87
2022/05/25 06:51:18;;;;;;;;;;;23.30;78.60;;;20.33;55.51;100418.22;6152189;23;19939;-88
2022/05/25 06:53:45;;;;;;;;;;;23.00;78.50;;;19.72;61.42;100429.91;6152072;23;20398;-92
2022/05/25 06:56:12;;;;;;;;;;;22.80;80.90;;;19.22;61.54;100424.19;6125336;23;19978;-87
2022/05/25 06:58:39;;;;;;;;;;;22.50;80.30;;;18.92;64.40;100417.78;6150498;23;20336;-87
2022/05/25 07:01:07;;;;;;;;;;;22.30;81.40;;;18.79;65.68;100417.13;6151319;23;19956;-87
2022/05/25 07:03:35;;;;;;;;;;;22.00;82.60;;;18.48;66.83;100420.03;6125840;23;19920;-88
2022/05/25 07:06:06;;;;;;;;;;;21.70;82.30;;;18.30;66.70;100423.75;6125540;23;19920;-87
2022/05/25 07:08:36;;;;;;;;;;;21.40;82.20;;;18.30;66.47;100426.50;6151663;23;19917;-88
2022/05/25 07:11:04;;;;;;;;;;;21.20;83.90;;;18.28;66.62;100434.16;6125497;23;19920;-88
2022/05/25 07:13:31;;;;;;;;;;;21.00;83.40;;;18.16;67.38;100423.13;6151704;23;19924;-88
2022/05/25 07:16:01;;;;;;;;;;;20.80;84.20;;;18.07;67.18;100429.22;6125258;23;19927;-89
2022/05/25 07:18:29;;;;;;;;;;;20.60;84.00;;;17.97;67.93;100425.13;6125318;23;19916;-89
2022/05/25 07:21:01;;;;;;;;;;;20.40;85.80;;;17.76;70.07;100428.38;6125966;23;19991;-88
2022/05/25 07:23:28;;;;;;;;;;;20.20;86.60;;;17.67;69.03;100430.63;6151683;23;19982;-87
2022/05/25 07:25:55;;;;;;;;;;;20.00;86.70;;;17.57;72.09;100433.09;6125500;23;19917;-88
2022/05/25 07:28:22;;;;;;;;;;;19.80;88.80;;;17.48;69.78;100443.59;6150698;23;19959;-89
2022/05/25 07:30:51;;;;;;;;;;;19.70;87.50;;;17.48;72.06;100431.75;6151838;23;19920;-89
2022/05/25 07:33:19;;;;;;;;;;;19.60;89.30;;;17.54;70.16;100426.16;6151869;23;19916;-88
2022/05/25 07:35:46;;;;;;;;;;;19.50;88.50;;;17.50;69.45;100432.38;6151523;23;20625;-88
2022/05/25 07:38:15;;;;;;;;;;;19.50;89.30;;;17.57;70.44;100430.34;6150815;23;19922;-89
2022/05/25 07:40:43;;;;;;;;;;;19.40;89.20;;;17.71;72.73;100431.84;6151439;23;19967;-88
2022/05/25 07:43:15;;;;;;;;;;;19.40;90.70;;;17.59;73.36;100436.44;6125501;23;20002;-88
2022/05/25 07:45:48;;;;;;;;;;;19.40;90.10;;;17.62;73.22;100435.16;6124582;23;19940;-91
2022/05/25 07:48:15;;;;;;;;;;;19.40;90.80;;;17.59;70.10;100436.44;6149825;23;20003;-91
2022/05/25 07:50:43;;;;;;;;;;;19.40;89.40;;;17.76;71.78;100451.25;6151732;23;19938;-91
2022/05/25 07:55:56;;;;;;;;;;;19.40;91.90;;;17.69;68.05;100431.25;6123891;23;19974;-92
2022/05/25 07:58:23;;;;;;;;;;;19.40;88.50;;;17.78;69.01;100440.84;6150780;23;19947;-90
2022/05/25 08:00:52;;;;;;;;;;;19.40;89.30;;;17.88;70.69;100443.06;6125602;23;19995;-90
2022/05/25 08:06:04;;;;;;;;;;;19.50;89.50;;;17.95;69.12;100449.31;6151506;23;19999;-91
2022/05/25 08:08:31;;;;;;;;;;;19.50;88.90;;;17.93;69.84;100447.84;6149047;23;19920;-91
2022/05/25 08:11:06;;;;;;;;;;;19.50;89.70;;;18.00;68.72;100447.75;6125331;23;19927;-91
2022/05/25 08:13:34;;;;;;;;;;;19.50;89.10;;;18.04;69.73;100447.03;6125155;23;20414;-92
2022/05/25 08:16:01;;;;;;;;;;;19.50;89.80;;;18.09;68.85;100444.44;6124430;23;19917;-92
2022/05/25 08:18:28;;;;;;;;;;;19.50;88.80;;;18.13;65.09;100458.56;6124572;23;20002;-90
2022/05/25 08:20:55;;;;;;;;;;;19.40;87.20;;;18.08;65.91;100456.50;6150873;23;19920;-90
2022/05/25 08:23:22;;;;;;;;;;;19.40;88.40;;;18.08;65.94;100447.41;6150969;23;20007;-90
2022/05/25 08:25:50;;;;;;;;;;;19.40;87.40;;;18.11;67.74;100453.28;6125611;23;19920;-88
2022/05/25 08:28:18;;;;;;;;;;;19.40;88.00;;;18.18;69.20;100447.66;6126258;23;20423;-88
2022/05/25 08:30:46;;;;;;;;;;;19.50;89.80;;;18.27;66.55;100443.50;6153180;23;19935;-89
2022/05/25 08:33:17;;;;;;;;;;;19.60;88.10;;;18.32;66.91;100449.13;6153635;23;19947;-89
2022/05/25 08:35:45;;;;;;;;;;;19.60;88.30;;;18.28;67.39;100447.94;6151557;23;20627;-89
2022/05/25 08:38:12;;;;;;;;;;;19.70;88.30;;;18.32;67.35;100438.13;6126219;23;19920;-89
2022/05/25 08:40:39;;;;;;;;;;;19.70;88.30;;;18.34;70.40;100438.72;6153177;23;19920;-89
2022/05/25 08:43:09;;;;;;;;;;;19.80;90.40;;;18.35;65.86;100445.91;6153343;23;20003;-88
2022/05/25 08:45:41;;;;;;;;;;;19.80;87.10;;;18.15;66.70;100442.66;6126586;23;19927;-89
2022/05/25 08:48:11;;;;;;;;;;;19.70;87.30;;;18.18;66.43;100450.41;6152140;23;19932;-87
2022/05/25 08:50:51;;;;;;;;;;;19.60;87.60;;;18.24;68.43;100446.75;6151996;23;19931;-90
2022/05/25 08:53:20;;;;;;;;;;;19.70;89.00;;;18.41;66.46;100452.41;6152761;23;19994;-88
2022/05/25 08:55:59;;;;;;;;;;;19.70;86.70;;;18.47;67.66;100445.09;6152632;23;19952;-88
2022/05/25 08:58:30;;;;;;;;;;;19.80;89.10;;;18.49;67.96;100445.69;6152489;23;19971;-88
2022/05/25 09:00:59;;;;;;;;;;;19.80;89.00;;;18.62;67.55;100448.22;6126825;23;19916;-88
2022/05/25 09:03:34;;;;;;;;;;;19.90;89.00;;;18.73;67.88;100449.28;6152660;23;19920;-88
2022/05/25 09:06:06;;;;;;;;;;;19.90;88.70;;;18.92;69.24;100450.88;6152726;23;19920;-87
2022/05/25 09:08:42;;;;;;;;;;;20.00;90.10;;;18.80;64.93;100458.28;6152353;23;19920;-88
2022/05/25 09:11:12;;;;;;;;;;;20.00;87.40;;;18.65;62.47;100447.72;6153268;23;19931;-88
2022/05/25 09:13:43;;;;;;;;;;;20.00;85.20;;;18.63;64.94;100454.56;6152693;23;19927;-89
2022/05/25 09:16:19;;;;;;;;;;;19.90;87.10;;;18.73;66.96;100455.66;6152744;23;19920;-88
2022/05/25 09:18:53;;;;;;;;;;;20.00;88.50;;;18.82;65.73;100447.88;6125171;23;20348;-88
2022/05/25 09:21:22;;;;;;;;;;;20.00;87.10;;;18.81;65.69;100434.31;6126043;23;20423;-88
2022/05/25 09:23:52;;;;;;;;;;;20.10;86.70;;;18.92;68.14;100447.25;6125994;23;19920;-88
2022/05/25 09:26:20;;;;;;;;;;;20.10;89.00;;;19.03;63.27;100448.31;6125789;23;20307;-88
2022/05/25 09:28:50;;;;;;;;;;;20.10;85.40;;;19.20;63.45;100454.75;6125781;23;19916;-87
2022/05/25 09:31:22;;;;;;;;;;;20.10;84.80;;;19.21;60.92;100452.84;6152633;23;19920;-86
2022/05/25 09:33:51;;;;;;;;;;;20.20;84.60;;;19.15;62.19;100446.38;6152454;23;20036;-86
2022/05/25 09:36:23;;;;;;;;;;;20.20;84.80;;;19.08;63.03;100452.03;6151811;23;19959;-86
2022/05/25 09:39:05;;;;;;;;;;;20.20;86.30;;;18.90;60.94;100450.25;6151921;23;20487;-87
2022/05/25 09:41:32;;;;;;;;;;;20.20;83.80;;;18.76;61.10;100448.81;6152666;23;19923;-87
2022/05/25 09:44:00;;;;;;;;;;;20.20;82.70;;;18.70;61.75;100456.13;6152752;23;20003;-87
2022/05/25 09:46:31;;;;;;;;;;;20.10;83.10;;;18.73;61.34;100468.56;6152418;23;19916;-87
2022/05/25 09:49:02;;;;;;;;;;;20.10;83.70;;;18.78;62.58;100465.09;6152018;23;20370;-88
2022/05/25 09:51:34;;;;;;;;;;;20.10;84.10;;;18.70;61.07;100467.13;6152689;23;19959;-87
2022/05/25 09:54:06;;;;;;;;;;;20.10;84.00;;;18.69;63.03;100462.69;6126192;23;20020;-87
2022/05/25 09:56:37;;;;;;;;;;;20.00;84.60;;;18.76;64.70;100465.34;6152518;23;19939;-86
2022/05/25 09:59:07;;;;;;;;;;;20.10;86.70;;;18.80;65.00;100446.41;6151609;23;19920;-87
2022/05/25 10:01:43;;;;;;;;;;;20.20;87.90;;;18.87;66.25;100478.31;6152501;23;19927;-73
2022/05/25 10:04:14;;;;;;;;;;;20.20;87.40;;;19.00;64.16;100465.34;6152342;23;19936;-73
2022/05/25 10:06:49;;;;;;;;;;;20.20;85.10;;;19.04;61.98;100463.78;6152470;23;19921;-73
2022/05/25 10:09:21;;;;;;;;;;;20.20;83.70;;;19.07;59.45;100455.03;6151527;23;20267;-73
2022/05/25 10:11:50;;;;;;;;;;;20.20;81.50;;;19.08;62.45;100467.75;6152285;23;20307;-73
2022/05/25 10:14:23;;;;;;;;;;;20.20;84.50;;;19.07;60.96;100461.38;6152408;23;19916;-73
2022/05/25 10:16:52;;;;;;;;;;;20.30;83.10;;;19.12;65.01;100461.50;6152588;23;20260;-71
2022/05/25 10:19:20;;;;;;;;;;;20.30;86.50;;;19.00;61.76;100466.22;6151624;23;19970;-71
2022/05/25 10:21:50;;;;;;;;;;;20.20;82.80;;;19.03;59.34;100464.88;6152227;23;19921;-71
2022/05/25 10:24:23;;;;;;;;;;;20.30;80.60;;;19.20;62.83;100459.44;6150156;23;20267;-72
2022/05/25 10:26:52;;;;;;;;;;;20.30;85.20;;;19.29;61.79;100460.75;6152346;23;20007;-73
2022/05/25 10:38:07;;;;;;;;;;;20.30;83.10;;;19.17;63.35;100451.66;6151215;23;19927;-72
2022/05/25 10:40:34;;;;;;;;;;;20.30;85.30;;;19.14;60.54;100451.06;6151730;23;19923;-72
2022/05/25 10:43:01;;;;;;;;;;;20.30;81.10;;;18.99;58.51;100463.69;6152278;23;19959;-72
2022/05/25 10:45:33;;;;;;;;;;;20.20;80.20;;;19.08;63.47;100462.25;6151335;23;19936;-72
2022/05/25 10:48:18;;;;;;;;;;;20.30;84.70;;;19.24;63.61;100449.59;6150853;23;19920;-72
2022/05/25 10:50:50;;;;;;;;;;;20.40;85.30;;;19.31;60.85;100453.06;6151840;23;19927;-72
2022/05/25 10:53:25;;;;;;;;;;;20.50;82.80;;;19.36;63.07;100458.66;6152001;23;20255;-72
2022/05/25 10:55:58;;;;;;;;;;;20.60;84.50;;;19.40;59.46;100453.50;6125734;23;19920;-72
2022/05/25 10:58:38;;;;;;;;;;;20.60;80.80;;;19.52;62.42;100452.38;6150903;23;20026;-72
2022/05/25 11:01:18;;;;;;;;;;;20.70;84.20;;;19.74;61.20;100465.53;6150583;23;19979;-72
2022/05/25 11:04:22;;;;;;;;;;;20.70;83.20;;;19.79;59.53;100462.88;6122101;23;19920;-72
2022/05/25 11:06:59;;;;;;;;;;;20.80;82.30;;;19.78;53.62;100458.47;6122611;23;19978;-72
2022/05/25 11:09:39;;;;;;;;;;;20.80;76.10;;;19.79;57.76;100456.53;6146152;23;19948;-72
2022/05/25 11:12:12;;;;;;;;;;;20.80;80.00;;;19.84;59.29;100453.88;6149028;23;19986;-72
2022/05/25 11:14:51;;;;;;;;;;;20.90;81.50;;;19.83;59.41;100465.97;6151388;23;19921;-72
2022/05/25 11:17:33;;;;;;;;;;;21.00;81.30;;;19.66;57.09;100465.91;6148117;23;20650;-72
2022/05/25 11:20:14;;;;;;;;;;;20.90;78.80;;;19.56;58.80;100474.00;6149143;23;19921;-72
2022/05/25 11:22:45;;;;;;;;;;;20.90;80.40;;;19.58;58.43;100467.13;6148587;23;19956;-72
2022/05/25 11:25:29;;;;;;;;;;;20.90;79.90;;;19.72;60.04;100476.84;6151050;23;20335;-73
2022/05/25 11:28:15;;;;;;;;;;;20.90;81.40;;;19.85;56.91;100461.06;6150607;23;19920;-72
2022/05/25 11:30:59;;;;;;;;;;;20.90;79.70;;;19.86;57.57;100459.97;6146383;23;19920;-75
2022/05/25 11:33:37;;;;;;;;;;;21.00;79.60;;;19.66;52.91;100468.66;6149954;23;19920;-73
2022/05/25 11:36:12;;;;;;;;;;;20.90;76.60;;;19.63;54.93;100460.88;6151135;23;19920;-73
2022/05/25 11:38:53;;;;;;;;;;;20.90;76.20;;;19.66;56.80;100452.94;6149362;23;20362;-73
2022/05/25 11:41:30;;;;;;;;;;;20.90;78.50;;;19.64;57.46;100468.06;6150820;23;20010;-72
2022/05/25 11:44:12;;;;;;;;;;;20.90;79.00;;;19.50;56.20;100459.25;6151107;23;20460;-72